Time;durP1;ratioP1;P1;durP2;ratioP2;P2;SDS_P1;SDS_P2;PMS_P1;PMS_P2;Temp;Humidity;BMP_temperature;BMP_pressure;BME280_temperature;BME280_humidity;BME280_pressure;Samples;Min_cycle;Max_cycle;Signal;HPM_P1;HPM_P2
2023/04/27 00:01:25;;;;;;;8.68;3.17;;;9.30;99.90;;;;;;5010723;28;20025;-76
2023/04/27 00:03:51;;;;;;;6.15;3.03;;;9.30;99.90;;;;;;5012614;28;20033;-77
2023/04/27 00:06:16;;;;;;;5.72;2.80;;;9.30;99.90;;;;;;5008576;28;20026;-77
2023/04/27 00:08:45;;;;;;;7.38;3.30;;;9.30;99.90;;;;;;4993601;28;20069;-76
2023/04/27 00:11:10;;;;;;;7.05;3.33;;;9.30;99.90;;;;;;4993778;28;20073;-77
2023/04/27 00:13:36;;;;;;;6.72;3.30;;;9.20;99.90;;;;;;4993942;28;20027;-77
2023/04/27 00:16:05;;;;;;;7.55;3.28;;;9.30;99.90;;;;;;4992606;28;20110;-77
2023/04/27 00:18:31;;;;;;;5.50;3.38;;;9.20;99.90;;;;;;4977567;28;20037;-76
2023/04/27 00:20:57;;;;;;;5.03;3.33;;;9.20;99.90;;;;;;4976131;28;20034;-76
2023/04/27 00:23:23;;;;;;;5.53;3.15;;;9.30;99.90;;;;;;4977530;28;20034;-76
2023/04/27 00:25:49;;;;;;;5.88;2.83;;;9.20;99.90;;;;;;4996506;28;20041;-76
2023/04/27 00:28:14;;;;;;;6.03;2.67;;;9.20;99.90;;;;;;5014845;28;20033;-76
2023/04/27 00:30:40;;;;;;;4.82;2.88;;;9.20;99.90;;;;;;5029996;28;20022;-77
2023/04/27 00:33:06;;;;;;;5.63;3.03;;;9.20;99.90;;;;;;5014796;28;20021;-77
2023/04/27 00:35:32;;;;;;;7.55;3.38;;;9.20;99.90;;;;;;5014882;28;20026;-76
2023/04/27 00:37:58;;;;;;;6.18;2.95;;;9.20;99.90;;;;;;5015027;28;20030;-77
2023/04/27 00:40:26;;;;;;;5.25;3.25;;;9.20;99.90;;;;;;5014063;28;20030;-76
2023/04/27 00:42:52;;;;;;;9.02;3.05;;;9.20;99.90;;;;;;5015867;28;20109;-77
2023/04/27 00:45:20;;;;;;;5.38;3.00;;;9.20;99.90;;;;;;5014457;28;20060;-76
2023/04/27 00:47:46;;;;;;;6.72;2.75;;;9.20;99.90;;;;;;5014431;28;20080;-75
2023/04/27 00:50:12;;;;;;;7.95;2.97;;;9.10;99.90;;;;;;5014575;28;20022;-75
2023/04/27 00:52:38;;;;;;;4.43;2.75;;;9.10;99.90;;;;;;5014590;28;20096;-77
2023/04/27 00:55:04;;;;;;;4.93;2.53;;;9.10;99.90;;;;;;5011158;28;20109;-76
2023/04/27 00:57:32;;;;;;;6.40;2.95;;;9.10;99.90;;;;;;5015581;28;20054;-75
2023/04/27 00:59:59;;;;;;;5.00;2.72;;;9.10;99.90;;;;;;4994244;28;20023;-75
2023/04/27 01:02:25;;;;;;;6.65;3.55;;;9.10;99.90;;;;;;4994172;28;20493;-75
2023/04/27 01:04:55;;;;;;;5.50;3.03;;;9.00;99.90;;;;;;4990744;28;20102;-75
2023/04/27 01:07:24;;;;;;;5.55;2.90;;;9.00;99.90;;;;;;4993969;28;20034;-74
2023/04/27 01:09:50;;;;;;;5.80;3.00;;;9.00;99.90;;;;;;5008659;28;20022;-75
2023/04/27 01:12:25;;;;;;;9.88;3.53;;;8.90;99.90;;;;;;4995234;28;20101;-75
2023/04/27 01:14:57;;;;;;;9.43;4.03;;;9.00;99.90;;;;;;4984293;28;20030;-74
2023/04/27 01:17:28;;;;;;;3.42;2.70;;;8.90;99.90;;;;;;4993339;28;20090;-75
2023/04/27 01:19:58;;;;;;;4.75;2.85;;;8.90;99.90;;;;;;4979540;28;20034;-75
2023/04/27 01:22:30;;;;;;;6.00;3.03;;;8.90;99.90;;;;;;4994167;28;20034;-76
2023/04/27 01:24:58;;;;;;;8.63;3.20;;;8.90;99.90;;;;;;4993301;28;20444;-75
2023/04/27 01:27:24;;;;;;;7.07;3.30;;;8.90;99.90;;;;;;4994015;28;20553;-76
2023/04/27 01:29:52;;;;;;;5.78;3.45;;;8.90;99.90;;;;;;4994275;28;20156;-75
2023/04/27 01:32:24;;;;;;;6.82;3.22;;;8.90;99.90;;;;;;4993694;28;20025;-75
2023/04/27 01:34:50;;;;;;;10.68;3.20;;;8.80;99.90;;;;;;4994385;28;20387;-75
2023/04/27 01:37:22;;;;;;;6.22;3.53;;;8.90;99.90;;;;;;4993199;28;20045;-76
2023/04/27 01:39:53;;;;;;;9.57;3.70;;;8.80;99.90;;;;;;4993430;28;20103;-75
2023/04/27 01:42:44;;;;;;;7.43;3.20;;;8.80;99.90;;;;;;4994007;28;20073;-76
2023/04/27 01:45:10;;;;;;;6.05;2.95;;;8.80;99.90;;;;;;4992724;28;20030;-76
2023/04/27 01:47:39;;;;;;;7.05;3.00;;;8.80;99.90;;;;;;4992217;28;20032;-74
2023/04/27 01:50:08;;;;;;;8.02;2.95;;;8.80;99.90;;;;;;4993473;28;20046;-76
2023/04/27 01:52:37;;;;;;;8.20;3.42;;;8.80;99.90;;;;;;4992104;28;20303;-76
2023/04/27 01:55:06;;;;;;;5.95;3.15;;;8.70;99.90;;;;;;4993625;28;20022;-76
2023/04/27 01:57:32;;;;;;;7.18;3.20;;;8.70;99.90;;;;;;4993425;28;20026;-76
2023/04/27 01:59:57;;;;;;;5.68;2.85;;;8.70;99.90;;;;;;4992511;28;20076;-75
2023/04/27 02:02:26;;;;;;;7.60;3.20;;;8.70;99.90;;;;;;4993250;28;20582;-75
2023/04/27 02:04:54;;;;;;;7.35;3.35;;;8.60;99.90;;;;;;4989852;28;20027;-76
2023/04/27 02:07:23;;;;;;;7.50;3.53;;;8.60;99.90;;;;;;4993585;28;20029;-76
2023/04/27 02:09:52;;;;;;;9.23;3.35;;;8.60;99.90;;;;;;5001974;28;20494;-75
2023/04/27 02:12:26;;;;;;;8.02;3.63;;;8.50;99.90;;;;;;4993915;28;20074;-76
2023/04/27 02:14:55;;;;;;;5.80;3.40;;;8.50;99.90;;;;;;4975409;28;20104;-76
2023/04/27 02:17:21;;;;;;;5.93;3.17;;;8.50;99.90;;;;;;4974291;28;20030;-75
2023/04/27 02:19:52;;;;;;;5.85;3.50;;;8.40;99.90;;;;;;4973819;28;20483;-76
2023/04/27 02:22:18;;;;;;;5.75;3.03;;;8.50;99.90;;;;;;4973920;28;20033;-75
2023/04/27 02:24:44;;;;;;;7.93;3.17;;;8.40;99.90;;;;;;4973553;28;20122;-75
2023/04/27 02:27:15;;;;;;;9.32;3.70;;;8.40;99.90;;;;;;4973251;28;20542;-75
2023/04/27 02:29:41;;;;;;;7.63;3.30;;;8.40;99.90;;;;;;4986492;28;20022;-76
2023/04/27 02:32:06;;;;;;;8.77;3.70;;;8.40;99.90;;;;;;4999975;28;20022;-76
2023/04/27 02:34:35;;;;;;;11.80;3.90;;;8.40;99.90;;;;;;5001009;28;20405;-74
2023/04/27 02:37:00;;;;;;;5.28;3.35;;;8.40;99.90;;;;;;5010721;28;20378;-75
2023/04/27 02:39:29;;;;;;;8.70;3.67;;;8.30;99.90;;;;;;5010869;28;20030;-75
2023/04/27 02:41:55;;;;;;;7.72;2.88;;;8.30;99.90;;;;;;5010843;28;20088;-74
2023/04/27 02:44:23;;;;;;;7.22;3.80;;;8.30;99.90;;;;;;5011617;28;20030;-74
2023/04/27 02:46:55;;;;;;;12.18;3.90;;;8.30;99.90;;;;;;4993096;28;20050;-76
2023/04/27 02:49:24;;;;;;;5.05;3.30;;;8.30;99.90;;;;;;4998329;28;20034;-76
2023/04/27 02:51:49;;;;;;;8.68;4.25;;;8.30;99.90;;;;;;4988667;28;20069;-75
2023/04/27 02:54:24;;;;;;;10.77;4.00;;;8.20;99.90;;;;;;4992824;28;20501;-75
2023/04/27 02:57:02;;;;;;;6.43;3.33;;;8.30;99.90;;;;;;4987294;28;20018;-75
2023/04/27 02:59:27;;;;;;;5.93;2.90;;;8.30;99.90;;;;;;4987975;28;20022;-74
2023/04/27 03:01:56;;;;;;;9.30;3.55;;;8.30;99.90;;;;;;4971428;28;20074;-74
2023/04/27 03:04:26;;;;;;;7.85;3.58;;;8.30;99.90;;;;;;4972835;28;20465;-75
2023/04/27 03:07:11;;;;;;;6.72;3.38;;;8.20;99.90;;;;;;4988603;28;20450;-75
2023/04/27 03:09:40;;;;;;;11.52;3.53;;;8.30;99.90;;;;;;4990722;28;20065;-74
2023/04/27 03:12:21;;;;;;;7.88;3.33;;;8.20;99.90;;;;;;4991559;28;20037;-74
2023/04/27 03:14:46;;;;;;;7.13;3.00;;;8.20;99.90;;;;;;4992446;28;20459;-75
2023/04/27 03:17:15;;;;;;;4.80;3.08;;;8.20;99.90;;;;;;4992328;28;20117;-75
2023/04/27 03:19:59;;;;;;;7.60;3.97;;;8.20;99.90;;;;;;4992706;28;20037;-75
2023/04/27 03:22:24;;;;;;;5.90;2.92;;;8.20;99.90;;;;;;4992690;28;20116;-75
2023/04/27 03:24:50;;;;;;;8.10;2.90;;;8.20;99.90;;;;;;4990684;28;20238;-75
2023/04/27 03:27:15;;;;;;;7.03;3.33;;;8.10;99.90;;;;;;4990123;28;20379;-75
2023/04/27 03:29:41;;;;;;;8.90;3.33;;;8.10;99.90;;;;;;4990718;28;20077;-75
2023/04/27 03:32:09;;;;;;;6.68;3.33;;;8.10;99.90;;;;;;5001455;28;20521;-75
2023/04/27 03:34:38;;;;;;;7.40;3.63;;;8.10;99.90;;;;;;4991977;28;20030;-75
2023/04/27 03:37:10;;;;;;;6.97;3.97;;;8.10;99.90;;;;;;4986888;28;20050;-75
2023/04/27 03:39:38;;;;;;;6.38;3.13;;;8.00;99.90;;;;;;4982937;28;20026;-75
2023/04/27 03:42:04;;;;;;;6.85;3.50;;;8.00;99.90;;;;;;4987596;28;20439;-75
2023/04/27 03:44:45;;;;;;;6.85;3.53;;;8.10;99.90;;;;;;4990657;28;20096;-75
2023/04/27 03:47:16;;;;;;;5.78;3.60;;;8.10;99.90;;;;;;4988642;28;20556;-75
2023/04/27 03:49:45;;;;;;;10.00;4.07;;;8.10;99.90;;;;;;4983344;28;20019;-75
2023/04/27 03:52:17;;;;;;;9.70;3.60;;;8.10;99.90;;;;;;4996130;28;20023;-73
2023/04/27 03:54:45;;;;;;;6.20;3.85;;;8.10;99.90;;;;;;4996647;28;20026;-75
2023/04/27 03:57:11;;;;;;;8.32;3.22;;;8.10;99.90;;;;;;4989142;28;20417;-75
2023/04/27 03:59:36;;;;;;;8.77;3.90;;;8.10;99.90;;;;;;4984737;28;20117;-75
2023/04/27 04:02:04;;;;;;;13.18;4.20;;;8.20;99.90;;;;;;4986921;28;20034;-76
2023/04/27 04:04:29;;;;;;;6.82;3.30;;;8.10;99.90;;;;;;4979994;28;20030;-76
2023/04/27 04:07:01;;;;;;;7.07;3.17;;;8.10;99.90;;;;;;4986996;28;20038;-76
2023/04/27 04:09:26;;;;;;;8.88;4.25;;;8.10;99.90;;;;;;4988220;28;20030;-76
2023/04/27 04:11:52;;;;;;;7.07;3.70;;;8.10;99.90;;;;;;4988287;28;20023;-76
2023/04/27 04:14:18;;;;;;;7.38;3.65;;;8.20;99.90;;;;;;4982632;28;20105;-76
2023/04/27 04:16:43;;;;;;;7.75;3.25;;;8.20;99.90;;;;;;4988161;28;20026;-75
2023/04/27 04:19:09;;;;;;;8.48;3.80;;;8.20;99.90;;;;;;4987912;28;20022;-76
2023/04/27 04:21:35;;;;;;;10.18;4.18;;;8.20;99.90;;;;;;4985905;28;20122;-75
2023/04/27 04:24:01;;;;;;;7.30;3.50;;;8.20;99.90;;;;;;4987581;28;20878;-76
2023/04/27 04:26:26;;;;;;;7.28;4.10;;;8.20;99.90;;;;;;4983185;28;20022;-75
2023/04/27 04:28:52;;;;;;;10.70;3.88;;;8.20;99.90;;;;;;4988839;28;20019;-76
2023/04/27 04:31:17;;;;;;;8.73;4.45;;;8.20;99.90;;;;;;4989742;28;20023;-76
2023/04/27 04:33:46;;;;;;;11.63;4.18;;;8.20;99.90;;;;;;4983001;28;20041;-75
2023/04/27 04:36:12;;;;;;;8.18;3.70;;;8.20;99.90;;;;;;4986083;28;20372;-76
2023/04/27 04:38:37;;;;;;;6.63;3.92;;;8.20;99.90;;;;;;4985644;28;20175;-76
2023/04/27 04:41:03;;;;;;;8.43;3.92;;;8.20;99.90;;;;;;4999429;28;20029;-76
2023/04/27 04:43:29;;;;;;;6.40;3.78;;;8.20;99.90;;;;;;4981532;28;20046;-76
2023/04/27 04:45:55;;;;;;;8.98;4.57;;;8.20;99.90;;;;;;4985386;28;20141;-76
2023/04/27 04:48:21;;;;;;;8.18;4.22;;;8.20;99.90;;;;;;4995534;28;20027;-76
2023/04/27 04:53:16;;;;;;;7.75;3.80;;;8.20;99.90;;;;;;5009551;28;20541;-77
2023/04/27 04:55:44;;;;;;;9.20;3.90;;;8.20;99.90;;;;;;5004490;28;20057;-77
2023/04/27 04:58:13;;;;;;;6.47;3.75;;;8.30;99.90;;;;;;5007857;28;20478;-77
2023/04/27 05:00:51;;;;;;;8.63;4.35;;;8.30;99.90;;;;;;5009945;28;20037;-77
2023/04/27 05:03:16;;;;;;;13.45;4.20;;;8.30;99.90;;;;;;4993741;28;20113;-76
2023/04/27 05:05:46;;;;;;;13.15;4.88;;;8.40;99.90;;;;;;4994772;28;20089;-76
2023/04/27 05:08:12;;;;;;;6.22;4.18;;;8.40;99.90;;;;;;4994019;28;20165;-78
2023/04/27 05:10:53;;;;;;;9.98;4.22;;;8.40;99.90;;;;;;4994314;28;20447;-77
2023/04/27 05:13:19;;;;;;;8.32;4.38;;;8.40;99.90;;;;;;4997328;28;20498;-77
2023/04/27 05:15:45;;;;;;;8.80;4.32;;;8.40;99.90;;;;;;4995602;28;20030;-77
2023/04/27 05:18:11;;;;;;;11.45;4.45;;;8.40;99.90;;;;;;4997249;28;20034;-78
2023/04/27 05:20:45;;;;;;;7.05;3.70;;;8.50;99.90;;;;;;4998253;28;20046;-77
2023/04/27 05:23:17;;;;;;;7.35;4.32;;;8.50;99.90;;;;;;4993443;28;20113;-77
2023/04/27 05:25:46;;;;;;;9.82;4.40;;;8.50;99.90;;;;;;4977582;28;20029;-77
2023/04/27 05:28:11;;;;;;;6.88;3.75;;;8.50;99.90;;;;;;5005168;28;20117;-77
2023/04/27 05:30:43;;;;;;;6.85;3.70;;;8.60;99.90;;;;;;4997210;28;20058;-74
2023/04/27 05:33:08;;;;;;;7.78;3.85;;;8.60;99.90;;;;;;4979936;28;20067;-80
2023/04/27 05:35:37;;;;;;;9.13;4.25;;;8.60;99.90;;;;;;4999806;28;20034;-78
2023/04/27 05:38:16;;;;;;;6.38;4.03;;;8.60;99.90;;;;;;4998995;28;20031;-78
2023/04/27 05:40:54;;;;;;;4.82;3.58;;;8.70;99.90;;;;;;4977382;28;20042;-78
2023/04/27 05:43:23;;;;;;;11.05;4.00;;;8.70;99.90;;;;;;4991570;28;20497;-77
2023/04/27 05:45:52;;;;;;;7.93;4.60;;;8.80;99.90;;;;;;4991902;28;20065;-78
2023/04/27 05:48:19;;;;;;;8.60;4.38;;;8.90;99.90;;;;;;4992220;28;20041;-77
2023/04/27 05:50:45;;;;;;;12.98;4.28;;;8.90;99.90;;;;;;4993846;28;20720;-78
2023/04/27 05:53:13;;;;;;;10.95;5.30;;;8.90;99.90;;;;;;4993681;28;20084;-78
2023/04/27 05:55:38;;;;;;;7.75;4.22;;;9.00;99.90;;;;;;4972101;28;20022;-72
2023/04/27 05:58:04;;;;;;;12.00;4.25;;;9.10;99.90;;;;;;4982652;28;20428;-73
2023/04/27 06:00:39;;;;;;;10.65;4.75;;;9.10;99.90;;;;;;4971447;28;20030;-72
2023/04/27 06:03:05;;;;;;;12.85;5.22;;;9.20;99.90;;;;;;4988572;28;20030;-73
2023/04/27 06:05:30;;;;;;;10.75;4.80;;;9.30;99.90;;;;;;4990161;28;20543;-72
2023/04/27 06:07:59;;;;;;;12.85;4.20;;;9.50;99.90;;;;;;4986214;28;20121;-73
2023/04/27 06:10:24;;;;;;;9.02;4.00;;;9.70;99.90;;;;;;4988238;28;21100;-73
2023/04/27 06:12:50;;;;;;;11.50;4.30;;;9.80;99.90;;;;;;4986029;28;20491;-77
2023/04/27 06:15:18;;;;;;;11.80;4.85;;;9.90;99.90;;;;;;4993147;28;20030;-78
2023/04/27 06:17:44;;;;;;;9.15;4.18;;;10.00;99.90;;;;;;4992653;28;20031;-78
2023/04/27 06:20:11;;;;;;;11.55;4.75;;;10.10;99.90;;;;;;4975999;28;20058;-78
2023/04/27 06:22:40;;;;;;;11.57;4.68;;;10.20;99.90;;;;;;4977829;28;20483;-78
2023/04/27 06:25:06;;;;;;;20.15;5.45;;;10.10;99.90;;;;;;4976119;28;20112;-78
2023/04/27 06:27:34;;;;;;;11.43;4.75;;;10.20;99.90;;;;;;4992369;28;20510;-78
2023/04/27 06:30:00;;;;;;;13.60;5.22;;;10.20;99.90;;;;;;4992903;28;20025;-78
2023/04/27 06:32:28;;;;;;;14.85;5.90;;;10.20;99.90;;;;;;4993055;28;20549;-77
2023/04/27 06:34:54;;;;;;;9.35;4.65;;;10.20;99.90;;;;;;4992680;28;20030;-79
2023/04/27 06:37:20;;;;;;;10.13;4.57;;;10.20;99.90;;;;;;5003105;28;20037;-79
2023/04/27 06:39:45;;;;;;;10.25;5.22;;;10.20;99.90;;;;;;4998111;28;20082;-78
2023/04/27 06:42:11;;;;;;;11.55;4.88;;;10.30;99.90;;;;;;5002073;28;20030;-78
2023/04/27 06:44:40;;;;;;;6.63;4.10;;;10.30;99.90;;;;;;4998693;28;20026;-78
2023/04/27 06:47:05;;;;;;;8.75;4.47;;;10.40;99.90;;;;;;4993906;28;20049;-76
2023/04/27 06:49:34;;;;;;;8.45;4.72;;;10.40;99.90;;;;;;4983140;28;20041;-75
2023/04/27 06:52:03;;;;;;;8.80;5.18;;;10.40;99.90;;;;;;4985992;28;20026;-77
2023/04/27 06:54:50;;;;;;;9.10;5.18;;;10.50;99.90;;;;;;4977388;28;20502;-76
2023/04/27 06:57:16;;;;;;;10.57;5.28;;;10.50;99.90;;;;;;4982598;28;20559;-78
2023/04/27 06:59:41;;;;;;;11.32;5.20;;;10.50;99.90;;;;;;4990736;28;20060;-79
2023/04/27 07:02:07;;;;;;;19.25;4.40;;;10.50;99.90;;;;;;4978490;28;20061;-80
2023/04/27 07:04:45;;;;;;;9.63;4.68;;;10.70;99.90;;;;;;4977244;28;20042;-79
2023/04/27 07:07:14;;;;;;;9.20;4.47;;;10.70;99.90;;;;;;4990193;28;20023;-79
2023/04/27 07:09:45;;;;;;;10.93;5.25;;;10.80;99.90;;;;;;4992649;28;20073;-78
2023/04/27 07:12:20;;;;;;;8.65;4.68;;;10.80;99.90;;;;;;4994046;28;20030;-78
2023/04/27 07:15:05;;;;;;;9.38;4.00;;;10.90;99.90;;;;;;4991070;28;20105;-78
2023/04/27 07:17:39;;;;;;;7.47;3.45;;;10.90;99.90;;;;;;4992425;28;20482;-77
2023/04/27 07:20:05;;;;;;;9.23;4.28;;;11.00;99.90;;;;;;4995243;28;20034;-79
2023/04/27 07:22:35;;;;;;;18.85;5.28;;;11.00;99.90;;;;;;4997210;28;20034;-80
2023/04/27 07:25:04;;;;;;;10.80;3.80;;;11.00;99.20;;;;;;5003004;28;20066;-76
2023/04/27 07:27:42;;;;;;;13.00;4.57;;;11.10;99.20;;;;;;5001073;28;20414;-77
2023/04/27 07:30:09;;;;;;;12.02;5.00;;;11.20;99.40;;;;;;4998989;28;20026;-79
2023/04/27 07:32:39;;;;;;;8.20;4.10;;;11.30;99.70;;;;;;5000972;28;20105;-79
2023/04/27 07:35:05;;;;;;;7.28;3.75;;;11.40;99.30;;;;;;4963167;28;20035;-79
2023/04/27 07:37:31;;;;;;;11.07;4.68;;;11.40;99.00;;;;;;5011455;28;20076;-79
2023/04/27 07:39:58;;;;;;;9.30;4.03;;;11.40;98.40;;;;;;5006664;28;20048;-79
2023/04/27 07:42:24;;;;;;;10.68;4.78;;;11.50;98.20;;;;;;5005790;28;20367;-79
2023/04/27 07:44:51;;;;;;;10.00;4.35;;;11.50;98.50;;;;;;5005989;28;20030;-79
2023/04/27 07:47:17;;;;;;;12.20;5.53;;;11.60;98.50;;;;;;5002349;28;20042;-79
2023/04/27 07:49:45;;;;;;;7.25;3.72;;;11.70;98.60;;;;;;4985873;28;20019;-80
2023/04/27 07:52:26;;;;;;;7.60;3.90;;;11.70;98.30;;;;;;4993119;28;20030;-80
2023/04/27 07:54:51;;;;;;;11.10;4.88;;;11.80;98.10;;;;;;5005320;28;20038;-79
2023/04/27 07:57:17;;;;;;;9.23;5.40;;;11.80;97.90;;;;;;5004092;28;20030;-79
2023/04/27 07:59:43;;;;;;;12.80;5.30;;;11.80;97.50;;;;;;5004191;28;20026;-79
2023/04/27 08:02:08;;;;;;;5.38;3.42;;;11.90;97.20;;;;;;5004203;28;20033;-78
2023/04/27 08:04:34;;;;;;;8.95;3.92;;;11.90;97.10;;;;;;5006612;28;20030;-80
2023/04/27 08:07:03;;;;;;;9.32;3.95;;;12.00;97.10;;;;;;4989417;28;20033;-78
2023/04/27 08:09:34;;;;;;;6.40;4.13;;;12.00;97.00;;;;;;4982120;28;20222;-80
2023/04/27 08:12:16;;;;;;;7.70;3.75;;;12.10;96.80;;;;;;4983949;28;20034;-80
2023/04/27 08:14:45;;;;;;;10.65;3.85;;;12.20;96.50;;;;;;4991586;28;20109;-79
2023/04/27 08:17:14;;;;;;;7.97;3.30;;;12.20;96.20;;;;;;5004268;28;20166;-80
2023/04/27 08:19:40;;;;;;;8.98;3.78;;;12.20;96.00;;;;;;4980546;28;20050;-78
2023/04/27 08:22:14;;;;;;;7.05;4.03;;;12.30;95.90;;;;;;5006334;28;20050;-80
2023/04/27 08:24:43;;;;;;;5.78;4.00;;;12.40;96.00;;;;;;5005095;28;20033;-80
2023/04/27 08:27:15;;;;;;;7.72;5.00;;;12.40;95.90;;;;;;5005198;28;20038;-81
2023/04/27 08:29:48;;;;;;;10.77;5.03;;;12.50;95.80;;;;;;5005205;28;20030;-79
2023/04/27 08:32:19;;;;;;;10.20;5.05;;;12.60;96.10;;;;;;4999777;28;20026;-80
2023/04/27 08:34:45;;;;;;;7.25;4.45;;;12.70;96.30;;;;;;5006522;28;20023;-81
2023/04/27 08:37:13;;;;;;;8.15;4.40;;;12.70;96.10;;;;;;5006665;28;20096;-79
2023/04/27 08:39:39;;;;;;;7.68;4.53;;;12.80;96.20;;;;;;5002444;28;20141;-80
2023/04/27 08:42:12;;;;;;;8.13;4.45;;;12.80;96.20;;;;;;4999053;28;20031;-81
2023/04/27 08:44:42;;;;;;;9.35;4.53;;;12.90;96.00;;;;;;5004970;28;20023;-80
2023/04/27 08:47:09;;;;;;;11.45;5.05;;;12.90;95.70;;;;;;4985782;28;20030;-81
2023/04/27 08:49:37;;;;;;;7.38;4.35;;;12.90;95.60;;;;;;5001529;28;20032;-80
2023/04/27 08:52:03;;;;;;;13.10;5.22;;;13.00;95.50;;;;;;5002528;28;20119;-79
2023/04/27 08:54:32;;;;;;;14.68;5.22;;;13.00;95.40;;;;;;5003739;28;20022;-80
2023/04/27 08:57:15;;;;;;;10.52;4.82;;;13.00;95.30;;;;;;4996386;28;20022;-81
2023/04/27 08:59:41;;;;;;;15.20;4.85;;;13.10;95.20;;;;;;4985890;28;20033;-79
2023/04/27 09:02:18;;;;;;;10.95;5.00;;;13.20;95.00;;;;;;4998597;28;20145;-79
2023/04/27 09:04:46;;;;;;;14.43;4.38;;;13.20;94.30;;;;;;5002338;28;20066;-79
2023/04/27 09:07:16;;;;;;;11.60;4.60;;;13.20;94.20;;;;;;4999315;28;20029;-79
2023/04/27 09:09:43;;;;;;;10.60;4.28;;;13.30;94.30;;;;;;4995541;28;20038;-77
2023/04/27 09:12:20;;;;;;;9.98;4.90;;;13.30;94.30;;;;;;4997311;28;20080;-79
2023/04/27 09:14:59;;;;;;;7.82;4.15;;;13.40;93.70;;;;;;5001289;28;20030;-79
2023/04/27 09:17:26;;;;;;;9.43;4.70;;;13.40;93.80;;;;;;4999302;28;20030;-79
2023/04/27 09:20:04;;;;;;;6.10;3.53;;;13.50;93.80;;;;;;4998351;28;20089;-78
2023/04/27 09:22:30;;;;;;;7.60;3.72;;;13.50;93.30;;;;;;5000218;28;20545;-79
2023/04/27 09:25:08;;;;;;;6.35;3.42;;;13.50;93.00;;;;;;5002413;28;20034;-78
2023/04/27 09:27:36;;;;;;;9.05;2.55;;;13.50;92.80;;;;;;4998122;28;20491;-77
2023/04/27 09:30:12;;;;;;;7.85;2.92;;;13.60;91.40;;;;;;5001309;28;20031;-77
2023/04/27 09:32:37;;;;;;;8.82;2.67;;;13.60;91.60;;;;;;4997616;28;20081;-78
2023/04/27 09:35:13;;;;;;;5.30;2.65;;;13.70;92.00;;;;;;4980789;28;20054;-80
2023/04/27 09:37:38;;;;;;;5.07;2.92;;;13.80;92.50;;;;;;4997868;28;20049;-81
2023/04/27 09:40:05;;;;;;;8.98;3.05;;;13.90;92.90;;;;;;4995188;28;20026;-79
2023/04/27 09:42:30;;;;;;;7.97;2.97;;;13.90;92.60;;;;;;4991451;28;20053;-80
2023/04/27 09:44:58;;;;;;;6.35;3.08;;;14.00;92.40;;;;;;4995195;28;20069;-78
2023/04/27 09:47:27;;;;;;;6.65;3.30;;;14.10;92.50;;;;;;5000191;28;20049;-79
2023/04/27 09:49:52;;;;;;;4.43;2.70;;;14.10;92.40;;;;;;5000228;28;20026;-79
2023/04/27 09:52:18;;;;;;;4.50;2.97;;;14.10;92.30;;;;;;4975637;28;20114;-79
2023/04/27 09:54:45;;;;;;;10.35;2.90;;;14.10;92.20;;;;;;4981045;28;20022;-79
2023/04/27 09:57:22;;;;;;;8.65;3.00;;;14.20;92.30;;;;;;4981667;28;20030;-79
2023/04/27 10:00:09;;;;;;;5.50;2.80;;;14.20;92.20;;;;;;4999490;28;20037;-80
2023/04/27 10:02:44;;;;;;;4.53;2.55;;;14.30;91.90;;;;;;4978754;28;20034;-79
2023/04/27 10:05:48;;;;;;;4.15;2.33;;;14.40;91.40;;;;;;4999851;28;20026;-80
2023/04/27 10:08:14;;;;;;;4.80;2.83;;;14.40;91.20;;;;;;4983749;28;20046;-80
2023/04/27 10:10:57;;;;;;;5.05;2.63;;;14.50;91.00;;;;;;4995115;28;20325;-78
2023/04/27 10:13:25;;;;;;;4.10;2.50;;;14.50;90.10;;;;;;4994140;28;20038;-78
2023/04/27 10:15:51;;;;;;;4.60;2.25;;;14.60;90.10;;;;;;4998263;28;20039;-79
2023/04/27 10:18:30;;;;;;;3.30;1.73;;;14.60;90.30;;;;;;4997974;28;20470;-78
2023/04/27 10:21:08;;;;;;;5.30;1.77;;;14.70;89.60;;;;;;4995838;28;20109;-77
2023/04/27 10:23:49;;;;;;;5.25;1.60;;;14.70;87.00;;;;;;4998220;28;20101;-77
2023/04/27 10:26:22;;;;;;;3.72;2.05;;;14.80;87.10;;;;;;4979287;28;20037;-78
2023/04/27 10:29:05;;;;;;;4.03;2.05;;;14.80;86.80;;;;;;4977401;28;20126;-79
2023/04/27 10:31:32;;;;;;;3.80;1.90;;;14.80;84.70;;;;;;4976245;28;20038;-80
2023/04/27 10:34:14;;;;;;;5.45;1.77;;;14.80;85.40;;;;;;4990426;28;20022;-78
2023/04/27 10:36:40;;;;;;;5.00;1.55;;;14.90;84.90;;;;;;4994040;28;20502;-79
2023/04/27 10:39:17;;;;;;;5.93;1.60;;;14.90;84.90;;;;;;4997358;28;20022;-81
2023/04/27 10:41:50;;;;;;;5.57;1.88;;;14.90;85.00;;;;;;4985760;28;20033;-80
2023/04/27 10:44:35;;;;;;;6.07;1.97;;;15.00;85.00;;;;;;5002351;28;20117;-80
2023/04/27 10:47:23;;;;;;;5.22;1.80;;;15.00;84.40;;;;;;5003043;28;20026;-80
2023/04/27 10:49:53;;;;;;;4.00;1.65;;;15.10;84.20;;;;;;4999736;28;20168;-80
2023/04/27 10:52:19;;;;;;;4.85;2.45;;;15.30;84.40;;;;;;4993599;28;20177;-75
2023/04/27 10:54:45;;;;;;;3.80;1.90;;;15.40;84.60;;;;;;4987876;28;20109;-75
2023/04/27 10:57:12;;;;;;;6.18;2.30;;;15.60;84.10;;;;;;4990428;28;20073;-75
2023/04/27 10:59:54;;;;;;;5.43;1.88;;;15.60;82.70;;;;;;4972076;28;20026;-76
2023/04/27 11:02:27;;;;;;;6.07;2.10;;;15.70;83.30;;;;;;4977115;28;20109;-74
2023/04/27 11:04:55;;;;;;;3.22;2.13;;;15.80;83.60;;;;;;4990432;28;20038;-75
2023/04/27 11:07:28;;;;;;;5.70;2.40;;;15.80;83.20;;;;;;4988642;28;20549;-72
2023/04/27 11:09:54;;;;;;;5.68;2.38;;;15.90;82.90;;;;;;4975386;28;20035;-75
2023/04/27 11:12:20;;;;;;;5.35;2.42;;;16.00;82.60;;;;;;4989397;28;20022;-75
2023/04/27 11:14:46;;;;;;;3.50;2.15;;;16.00;82.30;;;;;;4990364;28;20468;-74
2023/04/27 11:17:12;;;;;;;3.65;1.90;;;15.90;82.20;;;;;;4986642;28;20034;-76
2023/04/27 11:19:48;;;;;;;4.25;2.00;;;16.00;82.70;;;;;;4987718;28;20061;-76
2023/04/27 11:22:17;;;;;;;3.75;1.77;;;16.00;82.60;;;;;;4990870;28;20057;-79
2023/04/27 11:24:48;;;;;;;6.55;2.25;;;16.10;82.70;;;;;;4984544;28;20027;-76
2023/04/27 11:27:14;;;;;;;3.75;2.00;;;16.10;82.30;;;;;;4986446;28;20088;-76
2023/04/27 11:29:40;;;;;;;3.75;2.10;;;16.10;83.00;;;;;;4967625;28;20109;-75
2023/04/27 11:32:06;;;;;;;5.07;2.22;;;16.20;82.80;;;;;;4980341;28;20113;-75
2023/04/27 11:34:35;;;;;;;5.15;1.92;;;16.30;83.10;;;;;;4981789;28;20037;-74
2023/04/27 11:37:07;;;;;;;3.42;1.77;;;16.30;82.90;;;;;;4971517;28;20035;-78
2023/04/27 11:39:35;;;;;;;5.22;2.10;;;16.30;82.80;;;;;;4988145;28;20495;-77
2023/04/27 11:42:27;;;;;;;3.58;2.65;;;16.30;82.50;;;;;;4986803;28;20062;-75
2023/04/27 11:44:55;;;;;;;5.15;1.58;;;16.30;83.10;;;;;;4984881;28;20031;-74
2023/04/27 11:47:22;;;;;;;2.28;1.30;;;16.30;83.30;;;;;;4987937;28;20106;-78
2023/04/27 11:49:49;;;;;;;4.45;1.90;;;16.30;82.20;;;;;;4993003;28;20033;-77
2023/04/27 11:52:15;;;;;;;3.92;1.45;;;16.30;82.20;;;;;;4989563;28;20399;-79
2023/04/27 11:54:48;;;;;;;2.97;1.20;;;16.30;81.20;;;;;;4989343;28;20045;-76
2023/04/27 11:57:13;;;;;;;3.33;1.70;;;16.30;81.00;;;;;;4993898;28;20125;-77
2023/04/27 11:59:40;;;;;;;6.35;1.42;;;16.30;81.00;;;;;;4999823;28;20088;-77
2023/04/27 12:02:06;;;;;;;2.55;1.52;;;16.30;81.70;;;;;;4994790;28;20014;-75
2023/04/27 12:04:31;;;;;;;3.88;1.88;;;16.30;82.80;;;;;;4976840;28;20034;-76
2023/04/27 12:06:57;;;;;;;3.38;1.10;;;16.30;83.40;;;;;;4995398;28;20085;-76
2023/04/27 12:09:23;;;;;;;1.38;0.70;;;16.40;82.20;;;;;;4980485;28;20018;-76
2023/04/27 12:11:48;;;;;;;4.15;1.00;;;16.50;79.70;;;;;;4994829;28;20526;-74
2023/04/27 12:14:14;;;;;;;1.58;0.93;;;16.50;79.20;;;;;;4994781;28;20045;-77
2023/04/27 12:16:40;;;;;;;1.23;0.80;;;16.50;78.10;;;;;;4995947;28;20026;-78
2023/04/27 12:19:06;;;;;;;1.08;0.68;;;16.60;77.80;;;;;;4999550;28;20475;-77
2023/04/27 12:21:32;;;;;;;1.75;0.90;;;16.70;78.20;;;;;;4997889;28;20379;-77
2023/04/27 12:23:58;;;;;;;1.73;0.90;;;16.70;77.90;;;;;;4991242;28;20050;-77
2023/04/27 12:26:24;;;;;;;2.00;0.90;;;16.80;77.40;;;;;;4994557;28;20050;-76
2023/04/27 12:28:50;;;;;;;2.60;0.90;;;16.90;77.30;;;;;;4991376;28;20065;-76
2023/04/27 12:31:17;;;;;;;2.70;1.00;;;17.00;76.90;;;;;;4994103;28;20038;-76
2023/04/27 12:33:43;;;;;;;2.60;1.13;;;17.10;75.20;;;;;;4991376;28;20130;-75
2023/04/27 12:36:08;;;;;;;3.50;1.17;;;17.10;75.10;;;;;;4974200;28;20070;-77
2023/04/27 12:38:34;;;;;;;1.85;1.10;;;17.10;75.90;;;;;;4996785;28;20026;-76
2023/04/27 12:41:01;;;;;;;4.00;1.58;;;17.20;75.60;;;;;;4984695;28;20049;-75
2023/04/27 12:43:27;;;;;;;4.72;1.08;;;17.20;75.60;;;;;;4990941;28;20034;-74
2023/04/27 12:45:52;;;;;;;3.15;1.30;;;17.30;76.40;;;;;;4980047;28;20099;-76
2023/04/27 12:48:18;;;;;;;2.17;0.90;;;17.40;75.80;;;;;;4976291;28;20022;-75
2023/04/27 12:50:44;;;;;;;4.80;1.15;;;17.40;76.40;;;;;;4976490;28;20026;-75
2023/04/27 12:53:10;;;;;;;3.78;1.20;;;17.40;76.50;;;;;;4976744;28;20040;-78
2023/04/27 12:55:36;;;;;;;1.60;0.95;;;17.40;75.80;;;;;;4997468;28;20130;-76
2023/04/27 12:58:02;;;;;;;2.55;1.27;;;17.40;76.50;;;;;;4991916;28;20463;-76
2023/04/27 13:00:28;;;;;;;4.55;1.55;;;17.50;76.60;;;;;;4993686;28;20026;-78
2023/04/27 13:02:55;;;;;;;2.70;1.77;;;17.60;76.50;;;;;;4990345;28;20035;-77